createdAt,value
2022-12-08T05:01:02.998Z,98218.66
2022-12-08T05:05:14.553Z,98212.28
2022-12-08T05:09:26.023Z,98217.16
2022-12-08T05:13:37.711Z,98213.03
2022-12-08T05:17:49.149Z,98211.19
2022-12-08T05:22:00.789Z,98213.59
2022-12-08T05:26:12.224Z,98203.28
2022-12-08T05:30:23.700Z,98205.06
2022-12-08T05:34:35.213Z,98201.69
2022-12-08T05:38:46.747Z,98203.31
2022-12-08T05:42:58.231Z,98199.13
2022-12-08T05:47:09.724Z,98196.97
2022-12-08T05:51:23.973Z,98198.75
2022-12-08T05:55:35.420Z,98201.16
2022-12-08T05:59:46.896Z,98207.28
2022-12-08T06:04:00.977Z,98198.13
2022-12-08T06:08:13.128Z,98198.13
2022-12-08T06:12:24.766Z,98190.66
2022-12-08T06:16:36.362Z,98193.50
2022-12-08T06:20:48.152Z,98195.00
2022-12-08T06:24:59.604Z,98195.97
2022-12-08T06:29:11.049Z,98200.06
2022-12-08T06:33:22.692Z,98201.69
2022-12-08T06:37:34.386Z,98201.69
2022-12-08T06:42:04.612Z,98199.78
2022-12-08T06:46:18.780Z,98198.03
2022-12-08T06:50:30.438Z,98199.09
2022-12-08T06:54:41.892Z,98197.22
2022-12-08T06:58:53.477Z,98204.00
2022-12-08T07:03:04.944Z,98198.56
2022-12-08T07:07:16.421Z,98201.28
2022-12-08T07:11:27.924Z,98203.03
2022-12-08T07:15:39.358Z,98197.88
2022-12-08T07:19:51.402Z,98198.56
2022-12-08T07:24:02.896Z,98196.00
2022-12-08T07:28:14.486Z,98198.69
2022-12-08T07:32:25.991Z,98188.44
2022-12-08T07:36:37.480Z,98190.31
2022-12-08T07:40:48.924Z,98183.81
2022-12-08T07:45:00.780Z,98179.84
2022-12-08T07:49:13.569Z,98185.41
2022-12-08T07:53:25.020Z,98183.13
2022-12-08T07:57:36.536Z,98183.81
2022-12-08T08:02:01.009Z,98186.50
2022-12-08T08:06:19.789Z,98184.88
2022-12-08T08:10:31.338Z,98184.19
2022-12-08T08:14:42.849Z,98193.28
2022-12-08T08:18:54.440Z,98184.88
2022-12-08T08:23:05.853Z,98184.06
2022-12-08T08:27:17.331Z,98181.06
2022-12-08T08:31:28.826Z,98186.66
2022-12-08T08:35:40.792Z,98194.41
2022-12-08T08:39:52.253Z,98188.28
2022-12-08T08:44:04.255Z,98189.25
2022-12-08T08:48:15.675Z,98182.72
2022-12-08T08:52:27.213Z,98188.56
2022-12-08T08:56:38.681Z,98175.28
2022-12-08T09:00:50.137Z,98180.72
2022-12-08T09:05:01.720Z,98177.72
2022-12-08T09:09:13.457Z,98181.25
2022-12-08T09:13:24.973Z,98179.66
2022-12-08T09:17:36.456Z,98169.72
2022-12-08T09:21:47.881Z,98170.56
2022-12-08T09:25:59.353Z,98165.66
2022-12-08T09:30:10.974Z,98168.91
2022-12-08T09:34:22.426Z,98168.25
2022-12-08T09:38:33.991Z,98167.28
2022-12-08T09:43:03.726Z,98171.63
2022-12-08T09:47:35.536Z,98162.00
2022-12-08T09:51:48.035Z,98153.16
2022-12-08T09:56:35.680Z,98146.63
2022-12-08T10:00:47.369Z,98146.91
2022-12-08T10:04:59.321Z,98145.25
2022-12-08T10:09:38.703Z,98133.28
2022-12-08T10:14:20.365Z,98128.78
2022-12-08T10:18:33.438Z,98121.72
2022-12-08T10:22:47.188Z,98115.59
2022-12-08T10:26:59.228Z,98116.00
2022-12-08T10:31:19.009Z,98112.03
2022-12-08T10:35:50.395Z,98102.78
2022-12-08T10:40:13.304Z,98095.41
2022-12-08T10:44:24.818Z,98104.09
2022-12-08T10:48:36.303Z,98106.28
2022-12-08T10:52:59.802Z,98100.00
2022-12-08T10:57:20.784Z,98094.69
2022-12-08T11:01:38.922Z,98084.22
2022-12-08T11:05:50.643Z,98078.19
2022-12-08T11:10:02.516Z,98066.75
2022-12-08T11:14:43.643Z,98068.25
2022-12-08T11:18:57.532Z,98055.13
2022-12-08T11:23:22.101Z,98055.47
2022-12-08T11:27:45.603Z,98062.31
2022-12-08T11:32:01.341Z,98059.94
2022-12-08T11:36:15.469Z,98059.19
2022-12-08T11:40:35.592Z,98049.72
2022-12-08T11:44:47.026Z,98038.09
2022-12-08T11:49:06.915Z,98042.06
2022-12-08T11:53:29.178Z,98038.97
2022-12-08T11:57:40.746Z,98028.09
2022-12-08T12:01:52.360Z,98019.09
2022-12-08T12:06:54.352Z,98017.47
2022-12-08T12:11:41.841Z,98023.00
2022-12-08T12:16:26.361Z,98021.91
2022-12-08T12:20:58.315Z,98014.00
2022-12-08T12:25:18.971Z,98014.44
2022-12-08T12:29:35.593Z,98012.06
2022-12-08T12:33:47.525Z,98013.72
2022-12-08T12:38:25.741Z,98005.56
2022-12-08T12:42:49.039Z,98006.16
2022-12-08T12:47:03.112Z,98000.69
2022-12-08T12:51:41.665Z,98004.56
2022-12-08T12:56:00.485Z,97993.06
2022-12-08T13:00:19.804Z,97993.31
2022-12-08T13:04:35.831Z,97983.28
2022-12-08T13:08:53.049Z,97988.16
2022-12-08T13:13:16.729Z,97982.53
2022-12-08T13:17:36.145Z,97985.63
2022-12-08T13:21:47.709Z,97994.22
2022-12-08T13:26:20.610Z,97979.81
2022-12-08T13:30:58.411Z,97978.03
2022-12-08T13:35:11.761Z,97976.53
2022-12-08T13:39:32.229Z,97970.94
2022-12-08T13:44:57.115Z,97962.13
2022-12-08T13:54:24.788Z,97960.81
2022-12-08T13:58:05.432Z,97966.88
2022-12-08T14:02:23.051Z,97956.94
2022-12-08T14:06:42.453Z,97956.81
2022-12-08T14:11:02.127Z,97956.53
2022-12-08T14:15:15.705Z,97960.72
2022-12-08T14:19:30.496Z,97956.81
2022-12-08T14:23:44.459Z,97955.19
2022-12-08T14:28:01.062Z,97960.72
2022-12-08T14:32:25.550Z,97963.16
2022-12-08T14:36:37.159Z,97954.44
2022-12-08T14:40:59.881Z,97960.88
2022-12-08T14:45:14.141Z,97956.88
2022-12-08T14:49:34.078Z,97954.72
2022-12-08T14:53:52.991Z,97958.06
2022-12-08T14:58:04.871Z,97967.59
2022-12-08T15:02:16.276Z,97966.22
2022-12-08T15:06:27.766Z,97971.31
2022-12-08T15:10:39.941Z,97974.84
2022-12-08T15:15:15.127Z,97969.69
2022-12-08T15:19:30.133Z,97970.41
2022-12-08T15:23:48.630Z,97971.38
2022-12-08T15:28:02.485Z,97974.91
2022-12-08T15:32:18.100Z,97964.22
2022-12-08T15:36:29.534Z,97966.91
2022-12-08T15:40:40.946Z,97956.19
2022-12-08T15:44:52.372Z,97963.94
2022-12-08T15:49:03.790Z,97954.88
2022-12-08T15:53:15.667Z,97952.84
2022-12-08T15:58:04.426Z,97952.34
2022-12-08T16:02:01.935Z,97951.53
2022-12-08T16:07:04.809Z,97951.81
2022-12-08T16:15:49.936Z,97941.59
2022-12-08T16:19:54.716Z,97940.41
2022-12-08T16:24:09.367Z,97939.06
2022-12-08T16:28:52.945Z,97940.03
2022-12-08T16:32:52.737Z,97935.53
2022-12-08T16:37:04.250Z,97935.00
2022-12-08T16:41:35.886Z,97928.22
2022-12-08T16:45:47.567Z,97928.34
2022-12-08T16:49:59.126Z,97930.13
2022-12-08T16:54:10.887Z,97925.25
2022-12-08T16:58:22.318Z,97917.50
2022-12-08T17:02:34.044Z,97923.19
2022-12-08T17:06:45.566Z,97919.00
2022-12-08T17:11:07.543Z,97913.16
2022-12-08T17:15:22.128Z,97909.75
2022-12-08T17:19:33.871Z,97920.25
2022-12-08T17:23:46.098Z,97910.22
2022-12-08T17:27:57.545Z,97912.78
2022-12-08T17:32:09.047Z,97910.50
2022-12-08T17:36:21.826Z,97907.75
2022-12-08T17:40:33.357Z,97911.44
2022-12-08T17:44:46.783Z,97902.34
2022-12-08T17:48:58.303Z,97907.66
2022-12-08T17:53:11.570Z,97909.41
2022-12-08T17:57:23.065Z,97910.91
2022-12-08T18:01:35.072Z,97915.13
2022-12-08T18:05:46.699Z,97921.50
2022-12-08T18:09:58.132Z,97921.50
2022-12-08T18:14:10.726Z,97927.75
2022-12-08T18:18:22.645Z,97919.34
2022-12-08T18:22:34.329Z,97921.94
2022-12-08T18:26:45.953Z,97907.56
2022-12-08T18:30:57.413Z,97922.34
2022-12-08T18:35:09.205Z,97912.84
2022-12-08T18:39:23.806Z,97908.34
2022-12-08T18:43:35.847Z,97913.66
2022-12-08T18:47:49.587Z,97914.59
2022-12-08T18:52:01.005Z,97907.03
2022-12-08T18:56:30.077Z,97902.94
2022-12-08T19:00:41.516Z,97910.97
2022-12-08T19:04:55.773Z,97917.75
2022-12-08T19:09:08.763Z,97910.53
2022-12-08T19:13:20.168Z,97904.72
2022-12-08T19:17:31.645Z,97899.56
2022-12-08T19:21:46.529Z,97906.63
2022-12-08T19:25:58.283Z,97907.72
2022-12-08T19:30:10.434Z,97906.91
2022-12-08T19:34:21.956Z,97898.06
2022-12-08T19:38:54.224Z,97895.63
2022-12-08T19:43:24.393Z,97892.50
2022-12-08T19:47:35.954Z,97891.88
2022-12-08T19:51:47.429Z,97890.38
2022-12-08T19:55:59.124Z,97889.56
2022-12-08T20:00:12.861Z,97886.03
2022-12-08T20:04:26.125Z,97886.44
2022-12-08T20:08:37.596Z,97882.50
2022-12-08T20:12:49.123Z,97886.59
2022-12-08T20:17:00.596Z,97881.03
2022-12-08T20:21:12.283Z,97874.41
2022-12-08T20:25:23.792Z,97879.84
2022-12-08T20:29:35.751Z,97874.13
2022-12-08T20:33:48.115Z,97878.47
2022-12-08T20:37:59.550Z,97878.47
2022-12-08T20:42:14.086Z,97876.84
2022-12-08T20:46:25.739Z,97876.56
2022-12-08T20:50:37.580Z,97873.88
2022-12-08T20:54:49.036Z,97871.28
2022-12-08T20:59:00.718Z,97878.09
2022-12-08T21:03:13.612Z,97879.97
2022-12-08T21:07:25.258Z,97874.94
2022-12-08T21:11:37.145Z,97882.84
2022-12-08T21:15:48.735Z,97879.03
2022-12-08T21:20:00.279Z,97873.88
2022-12-08T21:24:11.850Z,97870.63
2022-12-08T21:28:23.434Z,97879.31
2022-12-08T21:32:35.261Z,97879.31
2022-12-08T21:36:46.945Z,97882.16
2022-12-08T21:41:05.971Z,97868.19
2022-12-08T21:45:19.489Z,97872.81
2022-12-08T21:49:31.137Z,97871.19
2022-12-08T21:53:43.644Z,97873.09
2022-12-08T21:57:57.235Z,97870.63
2022-12-08T22:02:15.580Z,97874.16
2022-12-08T22:06:30.429Z,97871.47
2022-12-08T22:10:47.960Z,97865.47
2022-12-08T22:14:59.877Z,97875.78
2022-12-08T22:19:12.279Z,97875.94
2022-12-08T22:23:24.630Z,97872.69
2022-12-08T22:27:36.611Z,97870.09
